createdAt,value
2017-11-26T14:01:54.556Z,98.49
2017-11-26T14:02:54.567Z,99.06
2017-11-26T14:03:54.604Z,99.99
2017-11-26T14:04:54.647Z,99.44
2017-11-26T14:05:54.712Z,98.21
2017-11-26T14:06:54.749Z,96.59
2017-11-26T14:07:54.776Z,98.39
2017-11-26T14:08:54.818Z,98.30
2017-11-26T14:09:54.866Z,97.92
2017-11-26T14:10:54.904Z,98.39
2017-11-26T14:11:54.966Z,96.59
2017-11-26T14:12:54.989Z,95.93
2017-11-26T14:13:55.031Z,95.74
2017-11-26T14:14:55.082Z,96.31
2017-11-26T14:15:55.129Z,94.60
2017-11-26T14:16:55.158Z,94.13
2017-11-26T14:17:55.218Z,93.65
2017-11-26T14:18:55.245Z,93.94
2017-11-26T14:19:55.294Z,93.84
2017-11-26T14:20:55.328Z,94.70
2017-11-26T14:21:55.390Z,93.46
2017-11-26T14:22:55.432Z,93.65
2017-11-26T14:23:55.457Z,94.98
2017-11-26T14:24:55.497Z,95.74
2017-11-26T14:25:55.544Z,93.65
2017-11-26T14:26:55.604Z,93.94
2017-11-26T14:27:55.626Z,94.98
2017-11-26T14:28:55.669Z,94.65
2017-11-26T14:29:56.403Z,92.23
2017-11-26T14:30:55.758Z,92.33
2017-11-26T14:31:55.814Z,92.80
2017-11-26T14:32:55.856Z,92.80
2017-11-26T14:33:55.881Z,94.60
2017-11-26T14:34:55.947Z,93.99
2017-11-26T14:35:55.970Z,93.94
2017-11-26T14:36:56.008Z,92.52
2017-11-26T14:37:56.079Z,94.32
2017-11-26T14:38:56.112Z,96.17
2017-11-26T14:39:56.140Z,96.45
2017-11-26T14:40:56.178Z,96.92
2017-11-26T14:41:56.221Z,96.92
2017-11-26T14:42:56.266Z,96.64
2017-11-26T14:43:56.322Z,95.03
2017-11-26T14:44:56.347Z,95.69
2017-11-26T14:45:56.388Z,94.84
2017-11-26T14:46:56.432Z,93.42
2017-11-26T14:47:56.471Z,93.84
2017-11-26T14:48:56.540Z,95.41
2017-11-26T14:49:56.576Z,95.31
2017-11-26T14:50:56.598Z,94.08
2017-11-26T14:51:56.642Z,94.56
2017-11-26T14:52:56.683Z,94.74
2017-11-26T14:53:56.726Z,92.57
2017-11-26T14:54:56.801Z,91.81
2017-11-26T14:55:56.809Z,92.76
2017-11-26T14:56:56.850Z,92.76
2017-11-26T14:57:56.896Z,93.70
2017-11-26T14:58:56.950Z,92.94
2017-11-26T14:59:56.993Z,92.94
2017-11-26T15:00:57.020Z,93.13
2017-11-26T15:01:57.062Z,95.22
2017-11-26T15:02:57.105Z,95.03
2017-11-26T15:03:57.163Z,94.65
2017-11-26T15:04:57.203Z,93.42
2017-11-26T15:05:57.231Z,93.51
2017-11-26T15:06:57.291Z,93.51
2017-11-26T15:07:57.312Z,93.51
2017-11-26T15:08:57.379Z,91.90
2017-11-26T15:09:57.397Z,92.85
2017-11-26T15:10:57.442Z,93.61
2017-11-26T15:11:57.481Z,94.27
2017-11-26T15:12:57.524Z,94.37
2017-11-26T15:13:57.581Z,94.18
2017-11-26T15:14:57.608Z,95.79
2017-11-26T15:15:57.672Z,95.12
2017-11-26T15:16:57.691Z,93.80
2017-11-26T15:17:57.735Z,94.18
2017-11-26T15:18:57.781Z,92.66
2017-11-26T15:19:57.832Z,93.61
2017-11-26T15:20:57.860Z,94.56
2017-11-26T15:21:57.904Z,93.51
2017-11-26T15:22:57.947Z,93.23
2017-11-26T15:23:57.984Z,93.23
2017-11-26T15:24:58.047Z,92.85
2017-11-26T15:25:58.071Z,94.18
2017-11-26T15:26:58.112Z,93.61
2017-11-26T15:27:58.152Z,94.65
2017-11-26T15:28:58.193Z,95.12
2017-11-26T15:29:58.250Z,95.50
2017-11-26T15:30:58.276Z,95.79
2017-11-26T15:31:58.336Z,95.03
2017-11-26T15:32:58.361Z,94.56
2017-11-26T15:33:58.399Z,94.56
2017-11-26T15:34:58.442Z,93.70
2017-11-26T15:35:58.497Z,93.61
2017-11-26T15:36:58.552Z,93.70
2017-11-26T15:37:58.567Z,93.99
2017-11-26T15:38:58.609Z,94.27
2017-11-26T15:39:58.650Z,94.56
2017-11-26T15:40:58.710Z,93.89
2017-11-26T15:41:58.736Z,94.27
2017-11-26T15:42:58.778Z,94.74
2017-11-26T15:43:58.817Z,96.07
2017-11-26T15:44:58.867Z,96.26
2017-11-26T15:45:58.918Z,96.26
2017-11-26T15:46:58.945Z,95.60
2017-11-26T15:47:58.985Z,94.65
2017-11-26T15:48:59.026Z,93.23
2017-11-26T15:49:59.066Z,94.27
2017-11-26T15:50:59.139Z,95.12
2017-11-26T15:51:59.149Z,95.50
2017-11-26T15:52:59.208Z,94.27
2017-11-26T15:53:59.234Z,93.51
2017-11-26T15:54:59.282Z,93.13
2017-11-26T15:55:59.315Z,93.04
2017-11-26T15:56:59.379Z,94.18
2017-11-26T15:57:59.396Z,94.46
2017-11-26T15:58:59.451Z,94.18
2017-11-26T15:59:59.482Z,94.65
2017-11-26T16:00:59.526Z,94.08
2017-11-26T16:01:59.585Z,92.94
2017-11-26T16:02:59.608Z,92.57
2017-11-26T16:03:59.649Z,92.57
2017-11-26T16:04:59.690Z,91.62
2017-11-26T16:05:59.732Z,91.62
2017-11-26T16:06:59.790Z,92.38
2017-11-26T16:07:59.832Z,93.42
2017-11-26T16:08:59.867Z,93.70
2017-11-26T16:09:59.903Z,92.94
2017-11-26T16:10:59.941Z,93.23
2017-11-26T16:11:59.981Z,92.94
2017-11-26T16:13:00.048Z,93.42
2017-11-26T16:14:00.065Z,94.56
2017-11-26T16:15:00.108Z,95.12
2017-11-26T16:16:00.151Z,95.98
2017-11-26T16:17:00.198Z,96.92
2017-11-26T16:18:00.248Z,97.59
2017-11-26T16:19:00.273Z,97.02
2017-11-26T16:20:00.314Z,96.92
2017-11-26T16:21:00.358Z,96.83
2017-11-26T16:22:00.403Z,97.78
2017-11-26T16:23:00.464Z,97.11
2017-11-26T16:24:00.495Z,97.21
2017-11-26T16:25:00.523Z,97.68
2017-11-26T16:26:00.565Z,97.40
2017-11-26T16:27:00.620Z,96.17
2017-11-26T16:28:00.647Z,96.26
2017-11-26T16:29:00.705Z,96.55
2017-11-26T16:30:00.736Z,96.73
2017-11-26T16:31:00.777Z,96.45
2017-11-26T16:32:00.817Z,97.21
2017-11-26T16:33:00.861Z,97.78
2017-11-26T16:34:00.914Z,97.87
2017-11-26T16:35:00.942Z,97.68
2017-11-26T16:36:00.981Z,98.35
2017-11-26T16:37:01.019Z,98.82
2017-11-26T16:38:01.071Z,96.73
2017-11-26T16:39:01.121Z,97.54
2017-11-26T16:40:01.144Z,97.97
2017-11-26T16:41:01.186Z,98.06
2017-11-26T16:42:01.232Z,98.16
2017-11-26T16:43:01.270Z,99.15
2017-11-26T16:44:01.330Z,99.20
2017-11-26T16:45:01.354Z,98.68
2017-11-26T16:46:01.392Z,98.11
2017-11-26T16:47:01.435Z,98.11
2017-11-26T16:48:01.476Z,98.11
2017-11-26T16:49:01.533Z,98.30
2017-11-26T16:50:01.561Z,99.71
2017-11-26T16:51:01.621Z,99.99
2017-11-26T16:52:01.651Z,99.90
2017-11-26T16:53:01.683Z,99.71
2017-11-26T16:54:01.728Z,99.52
2017-11-26T16:55:01.770Z,98.96
2017-11-26T16:56:01.823Z,99.52
2017-11-26T16:57:01.852Z,99.81
2017-11-26T16:58:01.898Z,99.15
2017-11-26T16:59:01.933Z,99.81
2017-11-26T17:00:01.979Z,99.99
2017-11-26T17:01:02.038Z,99.99
2017-11-26T17:02:02.056Z,99.99
2017-11-26T17:03:02.129Z,99.99
2017-11-26T17:04:02.138Z,99.99
2017-11-26T17:05:02.190Z,99.99
2017-11-26T17:06:02.240Z,99.99
2017-11-26T17:07:02.263Z,99.99
2017-11-26T17:08:02.307Z,99.99
2017-11-26T17:09:02.348Z,99.99
2017-11-26T17:10:03.201Z,99.99
2017-11-26T17:11:02.446Z,99.99
2017-11-26T17:12:02.469Z,99.99
2017-11-26T17:13:02.511Z,99.99
2017-11-26T17:14:02.552Z,99.99
2017-11-26T17:15:02.595Z,99.99
2017-11-26T17:16:02.653Z,99.99
2017-11-26T17:17:02.678Z,99.99
2017-11-26T17:18:02.718Z,99.99
2017-11-26T17:19:02.760Z,99.99
2017-11-26T17:20:02.799Z,99.99
2017-11-26T17:21:02.862Z,99.99
2017-11-26T17:22:02.882Z,99.99
2017-11-26T17:23:02.925Z,99.99
2017-11-26T17:24:02.974Z,99.99
2017-11-26T17:25:03.009Z,99.99
2017-11-26T17:26:03.065Z,99.99
2017-11-26T17:27:03.098Z,99.99
2017-11-26T17:28:03.154Z,99.99
2017-11-26T17:29:03.172Z,99.99
2017-11-26T17:30:03.213Z,99.99
2017-11-26T17:31:03.257Z,99.99
2017-11-26T17:32:03.890Z,99.99
2017-11-26T17:33:03.340Z,99.99
2017-11-26T17:34:03.453Z,98.91
2017-11-26T17:35:03.423Z,99.20
2017-11-26T17:36:03.464Z,99.29
2017-11-26T17:37:03.521Z,98.44
2017-11-26T17:38:03.552Z,98.16
2017-11-26T17:39:03.608Z,98.06
2017-11-26T17:40:03.630Z,98.16
2017-11-26T17:41:03.672Z,98.54
2017-11-26T17:42:03.713Z,98.06
2017-11-26T17:43:03.774Z,98.54
2017-11-26T17:44:03.814Z,99.10
2017-11-26T17:45:03.845Z,98.25
2017-11-26T17:46:03.879Z,98.35
2017-11-26T17:47:03.920Z,98.54
2017-11-26T17:48:03.963Z,98.25
2017-11-26T17:49:04.036Z,98.44
2017-11-26T17:50:04.048Z,98.44
2017-11-26T17:51:04.085Z,97.87
2017-11-26T17:52:04.128Z,97.87
2017-11-26T17:53:04.172Z,98.35
2017-11-26T17:54:04.239Z,98.35
2017-11-26T17:55:04.260Z,96.73
2017-11-26T17:56:04.295Z,96.26
2017-11-26T17:57:04.337Z,96.26
2017-11-26T17:58:04.385Z,95.88
2017-11-26T17:59:04.437Z,94.84
2017-11-26T18:00:04.463Z,95.22
2017-11-26T18:01:04.504Z,96.17
2017-11-26T18:02:04.544Z,96.45
2017-11-26T18:03:04.587Z,94.74
2017-11-26T18:04:04.656Z,96.17
2017-11-26T18:05:04.670Z,96.07
2017-11-26T18:06:04.718Z,94.93
2017-11-26T18:07:04.754Z,95.12
2017-11-26T18:08:04.793Z,94.93
2017-11-26T18:09:04.855Z,96.36
2017-11-26T18:10:04.876Z,94.74
2017-11-26T18:11:04.933Z,96.26
2017-11-26T18:12:04.962Z,95.41
2017-11-26T18:13:05.011Z,95.69
2017-11-26T18:14:05.061Z,96.17
2017-11-26T18:15:05.102Z,95.50
2017-11-26T18:16:05.131Z,96.26
2017-11-26T18:17:05.173Z,96.07
2017-11-26T18:18:05.218Z,96.73
2017-11-26T18:19:05.257Z,96.45
2017-11-26T18:20:05.314Z,96.55
2017-11-26T18:21:05.340Z,97.02
2017-11-26T18:22:05.379Z,97.68
2017-11-26T18:23:05.420Z,97.40
2017-11-26T18:24:05.464Z,99.58
2017-11-26T18:25:05.535Z,99.99
2017-11-26T18:26:05.549Z,97.78
2017-11-26T18:27:05.609Z,97.02
2017-11-26T18:28:05.639Z,96.07
2017-11-26T18:29:05.678Z,97.02
2017-11-26T18:30:05.735Z,96.17
2017-11-26T18:31:05.755Z,96.55
2017-11-26T18:32:05.834Z,96.73
2017-11-26T18:33:05.837Z,97.59
2017-11-26T18:34:05.885Z,97.68
2017-11-26T18:35:05.941Z,97.78
2017-11-26T18:36:05.983Z,99.20
2017-11-26T18:37:06.008Z,99.39
2017-11-26T18:38:06.046Z,99.01
2017-11-26T18:39:06.095Z,98.35
2017-11-26T18:40:06.133Z,97.68
2017-11-26T18:41:06.190Z,97.68
2017-11-26T18:42:06.215Z,98.06
2017-11-26T18:43:06.257Z,99.29
2017-11-26T18:44:06.302Z,99.99
2017-11-26T18:45:06.342Z,99.99
2017-11-26T18:46:06.404Z,99.99
2017-11-26T18:47:06.427Z,99.99
2017-11-26T18:48:06.466Z,99.99
2017-11-26T18:49:06.510Z,99.58
2017-11-26T18:50:06.554Z,99.58
2017-11-26T18:51:06.611Z,99.39
2017-11-26T18:52:06.643Z,99.99
2017-11-26T18:53:06.676Z,99.99
2017-11-26T18:54:06.718Z,99.99
2017-11-26T18:55:06.769Z,99.99
2017-11-26T18:56:06.828Z,99.99
2017-11-26T18:57:06.844Z,99.99
2017-11-26T18:58:06.884Z,99.99
2017-11-26T18:59:06.930Z,99.99
2017-11-26T19:00:06.966Z,98.82
2017-11-26T19:01:07.026Z,98.25
2017-11-26T19:02:07.068Z,98.91
2017-11-26T19:03:07.094Z,99.99
2017-11-26T19:04:07.139Z,99.99
2017-11-26T19:05:07.182Z,99.99
2017-11-26T19:06:07.219Z,99.99
2017-11-26T19:07:07.277Z,99.99
2017-11-26T19:08:07.309Z,99.99
2017-11-26T19:09:07.347Z,99.99
2017-11-26T19:10:07.392Z,99.99
2017-11-26T19:11:07.431Z,99.99
2017-11-26T19:12:07.487Z,99.99
2017-11-26T19:13:07.528Z,99.99
2017-11-26T19:14:08.187Z,99.99
2017-11-26T19:15:07.598Z,99.99
2017-11-26T19:16:07.639Z,99.99
2017-11-26T19:17:07.701Z,99.99
2017-11-26T19:18:07.749Z,99.99
2017-11-26T19:19:07.763Z,99.99
2017-11-26T19:20:07.803Z,99.99
2017-11-26T19:21:07.846Z,99.99
2017-11-26T19:22:07.904Z,99.99
2017-11-26T19:23:07.937Z,99.99
2017-11-26T19:24:07.987Z,97.97
2017-11-26T19:25:08.014Z,98.72
2017-11-26T19:26:08.065Z,99.99
2017-11-26T19:27:08.098Z,99.99
2017-11-26T19:28:08.142Z,99.99
2017-11-26T19:29:08.199Z,99.99
2017-11-26T19:30:08.231Z,99.99
2017-11-26T19:31:08.264Z,99.99
2017-11-26T19:32:08.309Z,99.99
2017-11-26T19:33:08.367Z,99.99
2017-11-26T19:34:08.445Z,99.99
2017-11-26T19:35:08.435Z,99.99
2017-11-26T19:36:08.474Z,99.99
2017-11-26T19:37:08.520Z,99.99
2017-11-26T19:38:08.715Z,99.99
2017-11-26T19:39:08.602Z,99.99
2017-11-26T19:40:08.641Z,99.99
2017-11-26T19:41:08.683Z,99.99
2017-11-26T19:42:08.725Z,99.99
2017-11-26T19:43:08.786Z,99.99
2017-11-26T19:44:08.808Z,99.99
2017-11-26T19:45:08.852Z,99.99
2017-11-26T19:46:08.895Z,99.99
2017-11-26T19:47:08.935Z,99.99
2017-11-26T19:48:08.990Z,99.99
2017-11-26T19:49:09.034Z,99.99
2017-11-26T19:50:09.061Z,99.99
2017-11-26T19:51:09.107Z,99.99
2017-11-26T19:52:09.143Z,99.99
2017-11-26T19:53:09.185Z,99.99
2017-11-26T19:54:09.256Z,99.99
2017-11-26T19:55:09.266Z,99.99
2017-11-26T19:56:09.312Z,99.99
2017-11-26T19:57:09.354Z,99.99
2017-11-26T19:58:09.409Z,99.99
2017-11-26T19:59:09.443Z,99.99
2017-11-26T20:00:09.477Z,99.99
2017-11-26T20:01:09.536Z,99.99
2017-11-26T20:02:09.561Z,99.99
2017-11-26T20:03:09.618Z,99.99
2017-11-26T20:04:09.642Z,99.99
2017-11-26T20:05:09.693Z,99.99
2017-11-26T20:06:09.726Z,99.99
2017-11-26T20:07:09.769Z,99.99
2017-11-26T20:08:09.825Z,99.99
2017-11-26T20:09:09.853Z,99.99
2017-11-26T20:10:09.895Z,99.99
2017-11-26T20:11:09.935Z,99.99
2017-11-26T20:12:09.984Z,99.99
2017-11-26T20:13:10.036Z,99.99
2017-11-26T20:14:10.061Z,99.99
2017-11-26T20:15:10.105Z,99.99
2017-11-26T20:16:10.161Z,99.99
2017-11-26T20:17:10.185Z,99.99
2017-11-26T20:18:10.250Z,99.99
2017-11-26T20:19:10.271Z,99.99
2017-11-26T20:20:10.312Z,99.99
2017-11-26T20:21:10.353Z,99.99
2017-11-26T20:22:10.393Z,99.99
2017-11-26T20:23:10.458Z,99.99
2017-11-26T20:24:10.477Z,99.99
2017-11-26T20:25:10.517Z,99.99
2017-11-26T20:26:10.561Z,99.99
2017-11-26T20:27:10.603Z,99.99
2017-11-26T20:28:10.663Z,99.99
2017-11-26T20:29:10.687Z,99.99
2017-11-26T20:30:10.732Z,99.99
2017-11-26T20:31:10.786Z,99.99
2017-11-26T20:32:10.814Z,99.99
2017-11-26T20:33:10.854Z,99.99
2017-11-26T20:34:10.902Z,99.99
2017-11-26T20:35:10.937Z,99.99
2017-11-26T20:36:10.997Z,99.99
2017-11-26T20:37:11.035Z,99.99
2017-11-26T20:38:11.060Z,99.99
2017-11-26T20:39:11.102Z,99.99
2017-11-26T20:40:11.144Z,99.99
2017-11-26T20:41:11.205Z,99.99
2017-11-26T20:42:11.234Z,99.99
2017-11-26T20:43:11.270Z,99.99
2017-11-26T20:44:11.311Z,99.99
2017-11-26T20:45:11.354Z,99.99
2017-11-26T20:47:47.071Z,99.99
2017-11-26T20:48:47.093Z,99.99
2017-11-26T20:49:47.140Z,99.99
2017-11-26T20:50:47.179Z,99.99
2017-11-26T20:51:47.234Z,99.99
2017-11-26T20:52:47.272Z,99.99
2017-11-26T20:53:47.304Z,99.99
2017-11-26T20:54:47.344Z,99.99
2017-11-26T20:55:47.387Z,99.99
2017-11-26T20:56:47.449Z,99.99
2017-11-26T20:57:47.470Z,99.99
2017-11-26T20:58:47.513Z,99.99
2017-11-26T20:59:47.554Z,99.99
2017-11-26T21:00:47.594Z,99.99
2017-11-26T21:01:47.658Z,99.99
2017-11-26T21:02:47.700Z,99.99
2017-11-26T21:03:47.750Z,99.99
2017-11-26T21:04:47.809Z,99.99
2017-11-26T21:05:47.848Z,99.99
2017-11-26T21:06:47.911Z,99.99
2017-11-26T21:07:47.933Z,99.99
2017-11-26T21:08:47.970Z,99.99
2017-11-26T21:09:48.007Z,99.99
2017-11-26T21:10:48.068Z,99.58
2017-11-26T21:11:48.116Z,99.96
2017-11-26T21:12:48.143Z,99.99
2017-11-26T21:13:49.834Z,99.99
2017-11-26T21:14:48.228Z,99.99
2017-11-26T21:15:48.271Z,99.39
2017-11-26T21:16:48.319Z,98.63
2017-11-26T21:17:48.370Z,99.99
2017-11-26T21:18:48.385Z,99.99
2017-11-26T21:19:48.431Z,99.99
2017-11-26T21:20:48.474Z,99.20
2017-11-26T21:21:48.514Z,99.48
2017-11-26T21:22:48.580Z,99.99
2017-11-26T21:23:48.608Z,99.99
2017-11-26T21:24:48.637Z,99.99
2017-11-26T21:25:48.684Z,99.99
2017-11-26T21:26:48.731Z,99.99
2017-11-26T21:27:48.784Z,99.99
2017-11-26T21:28:48.801Z,99.99
2017-11-26T21:29:48.850Z,99.99
2017-11-26T21:30:48.905Z,99.99
2017-11-26T21:31:48.936Z,99.99
2017-11-26T21:32:48.995Z,99.99
2017-11-26T21:33:49.025Z,99.99
2017-11-26T21:34:49.059Z,99.99
2017-11-26T21:35:49.106Z,99.99
2017-11-26T21:36:49.145Z,99.99
2017-11-26T21:37:49.198Z,99.99
2017-11-26T21:38:49.251Z,99.99
2017-11-26T21:39:49.269Z,99.99
2017-11-26T21:40:49.314Z,99.99
2017-11-26T21:41:49.354Z,99.99
2017-11-26T21:42:49.395Z,99.99
2017-11-26T21:43:49.455Z,99.99
2017-11-26T21:44:49.478Z,99.99
2017-11-26T21:45:49.524Z,99.99
2017-11-26T21:46:50.405Z,99.99
2017-11-26T21:47:49.602Z,99.99
2017-11-26T21:48:49.660Z,99.99
2017-11-26T21:49:49.689Z,99.99
2017-11-26T21:50:49.722Z,99.99
2017-11-26T21:51:49.771Z,99.99
2017-11-26T21:52:49.808Z,99.99
2017-11-26T21:53:49.866Z,99.99
2017-11-26T21:54:49.917Z,99.99
2017-11-26T21:55:49.934Z,99.99
2017-11-26T21:56:49.982Z,99.99
2017-11-26T21:57:50.015Z,99.99
2017-11-26T21:58:50.083Z,99.99
2017-11-26T21:59:50.130Z,99.99
2017-11-26T22:02:26.544Z,99.99
2017-11-26T22:03:26.561Z,99.99
2017-11-26T22:04:26.621Z,99.99
2017-11-26T22:05:26.647Z,99.99
2017-11-26T22:06:26.689Z,99.99
2017-11-26T22:07:26.730Z,99.99
2017-11-26T22:08:26.771Z,99.99
2017-11-26T22:09:26.832Z,99.99
2017-11-26T22:10:27.549Z,99.99
2017-11-26T22:11:26.881Z,99.99
2017-11-26T22:12:26.891Z,99.99
2017-11-26T22:13:26.934Z,99.99
2017-11-26T22:14:26.993Z,98.91
2017-11-26T22:15:27.015Z,99.10
2017-11-26T22:16:27.061Z,99.99
2017-11-26T22:17:27.102Z,99.99
2017-11-26T22:18:27.144Z,99.99
2017-11-26T22:19:27.201Z,99.99
2017-11-26T22:20:27.227Z,99.99
2017-11-26T22:21:27.279Z,99.99
2017-11-26T22:22:27.310Z,99.99
2017-11-26T22:23:27.351Z,99.99
2017-11-26T22:24:27.414Z,99.99
2017-11-26T22:25:27.434Z,99.99
2017-11-26T22:26:27.475Z,98.35
2017-11-26T22:27:27.520Z,99.58
2017-11-26T22:28:27.558Z,99.39
2017-11-26T22:29:27.622Z,99.58
2017-11-26T22:30:27.642Z,98.25
2017-11-26T22:31:27.684Z,97.97
2017-11-26T22:32:27.749Z,98.06
2017-11-26T22:33:27.769Z,97.59
2017-11-26T22:34:27.808Z,97.97
2017-11-26T22:35:27.856Z,98.16
2017-11-26T22:36:27.893Z,99.10
2017-11-26T22:37:27.949Z,99.39
2017-11-26T22:38:27.982Z,98.44
2017-11-26T22:39:28.025Z,98.25
2017-11-26T22:40:28.058Z,97.21
2017-11-26T22:41:28.098Z,98.44
2017-11-26T22:42:28.158Z,98.63
2017-11-26T22:43:28.182Z,98.16
2017-11-26T22:44:28.226Z,98.16
2017-11-26T22:45:28.265Z,98.35
2017-11-26T22:48:04.791Z,98.06
2017-11-26T22:49:04.813Z,98.44
2017-11-26T22:50:04.859Z,98.91
2017-11-26T22:51:04.900Z,99.20
2017-11-26T22:52:04.949Z,98.72
2017-11-26T22:53:05.000Z,98.16
2017-11-26T22:54:05.026Z,97.87
2017-11-26T22:55:05.076Z,97.59
2017-11-26T22:56:05.105Z,98.25
2017-11-26T22:57:05.148Z,99.01
2017-11-26T22:58:05.213Z,98.25
2017-11-26T22:59:05.232Z,98.16
2017-11-26T23:00:05.270Z,96.92
2017-11-26T23:01:05.316Z,96.92
2017-11-26T23:02:05.357Z,97.49
2017-11-26T23:03:05.414Z,98.06
2017-11-26T23:04:05.457Z,99.01
2017-11-26T23:05:05.482Z,98.54
2017-11-26T23:06:05.530Z,97.87
2017-11-26T23:07:05.571Z,98.16
2017-11-26T23:08:05.605Z,98.25
2017-11-26T23:09:05.671Z,97.97
2017-11-26T23:10:05.689Z,97.49
2017-11-26T23:11:05.742Z,98.35
2017-11-26T23:12:05.775Z,96.83
2017-11-26T23:13:05.815Z,97.30
2017-11-26T23:14:05.875Z,97.68
2017-11-26T23:15:05.899Z,98.35
2017-11-26T23:16:05.948Z,97.97
2017-11-26T23:17:06.022Z,97.97
2017-11-26T23:18:06.026Z,99.39
2017-11-26T23:19:06.081Z,99.99
2017-11-26T23:20:06.124Z,99.99
2017-11-26T23:21:06.149Z,99.20
2017-11-26T23:22:06.190Z,99.29
2017-11-26T23:23:06.233Z,99.96
2017-11-26T23:24:06.279Z,99.99
2017-11-26T23:25:06.335Z,99.99
2017-11-26T23:26:06.362Z,99.99
2017-11-26T23:27:06.406Z,99.99
2017-11-26T23:28:06.441Z,98.35
2017-11-26T23:29:06.483Z,99.48
2017-11-26T23:30:06.543Z,99.99
2017-11-26T23:31:06.567Z,99.10
2017-11-26T23:32:06.610Z,97.97
2017-11-26T23:33:06.652Z,98.25
2017-11-26T23:34:06.695Z,98.25
2017-11-26T23:35:06.765Z,98.06
2017-11-26T23:36:06.780Z,98.06
2017-11-26T23:37:06.825Z,98.72
2017-11-26T23:38:06.859Z,98.35
2017-11-26T23:39:06.904Z,98.72
2017-11-26T23:40:06.965Z,98.16
2017-11-26T23:41:07.001Z,97.78
2017-11-26T23:42:07.028Z,96.83
2017-11-26T23:43:07.070Z,96.73
2017-11-26T23:44:07.112Z,96.36
2017-11-26T23:45:07.160Z,96.83
2017-11-26T23:46:07.218Z,97.59
2017-11-26T23:47:07.237Z,97.68
2017-11-26T23:48:07.285Z,99.01
2017-11-26T23:49:07.323Z,97.11
2017-11-26T23:50:07.365Z,95.69
2017-11-26T23:51:07.435Z,96.26
2017-11-26T23:52:07.446Z,94.93
2017-11-26T23:53:07.494Z,95.41
2017-11-26T23:54:07.530Z,95.50
2017-11-26T23:55:07.572Z,95.79
2017-11-26T23:56:07.631Z,95.31
2017-11-26T23:57:07.673Z,95.22
2017-11-26T23:58:07.699Z,96.45
2017-11-26T23:59:07.738Z,96.55
